Time;durP1;ratioP1;P1;durP2;ratioP2;P2;SDS_P1;SDS_P2;PMS_P1;PMS_P2;Temp;Humidity;BMP_temperature;BMP_pressure;BME280_temperature;BME280_humidity;BME280_pressure;Samples;Min_cycle;Max_cycle;Signal;HPM_P1;HPM_P2
2024/03/23 00:01:47;;;;;;;6.47;5.50;;;11.70;99.90;;;;;;4979527;28;20457;-73
2024/03/23 00:04:14;;;;;;;4.90;4.40;;;11.60;99.90;;;;;;4967779;28;20511;-73
2024/03/23 00:06:40;;;;;;;4.57;4.10;;;11.50;99.90;;;;;;4957986;28;20461;-74
2024/03/23 00:09:07;;;;;;;5.80;4.60;;;11.50;99.90;;;;;;4976179;28;20453;-72
2024/03/23 00:11:37;;;;;;;5.30;4.13;;;11.50;99.90;;;;;;4968743;28;20554;-73
2024/03/23 00:14:04;;;;;;;7.60;4.83;;;11.50;99.90;;;;;;4975085;28;21057;-72
2024/03/23 00:16:31;;;;;;;5.67;5.00;;;11.50;99.90;;;;;;4973899;28;20527;-74
2024/03/23 00:19:02;;;;;;;6.33;4.53;;;11.50;99.90;;;;;;4968923;28;20451;-73
2024/03/23 00:21:29;;;;;;;5.10;4.60;;;11.60;99.90;;;;;;4961928;28;20572;-73
2024/03/23 00:23:56;;;;;;;7.00;5.20;;;11.60;99.90;;;;;;4967639;28;20997;-72
2024/03/23 00:26:22;;;;;;;8.07;5.27;;;11.50;99.90;;;;;;4962388;28;20869;-75
2024/03/23 00:28:50;;;;;;;6.70;6.00;;;11.50;99.90;;;;;;4963602;28;20454;-71
2024/03/23 00:31:16;;;;;;;6.17;5.13;;;11.60;99.90;;;;;;4969855;28;20560;-76
2024/03/23 00:33:43;;;;;;;8.40;6.10;;;11.50;99.90;;;;;;4964277;28;20560;-73
2024/03/23 00:36:09;;;;;;;7.90;6.43;;;11.50;99.90;;;;;;4969314;28;20473;-74
2024/03/23 00:38:36;;;;;;;8.27;6.40;;;11.40;99.90;;;;;;4971136;28;20464;-75
2024/03/23 00:41:03;;;;;;;5.40;4.87;;;11.40;99.90;;;;;;4972099;28;20500;-74
2024/03/23 00:43:30;;;;;;;6.17;4.90;;;11.30;99.90;;;;;;4978592;28;20465;-74
2024/03/23 00:45:56;;;;;;;6.73;5.57;;;11.10;99.90;;;;;;4976636;28;20461;-72
2024/03/23 00:48:23;;;;;;;5.57;4.97;;;11.20;99.90;;;;;;4976397;28;20910;-74
2024/03/23 00:50:50;;;;;;;6.40;4.90;;;11.30;99.90;;;;;;4974237;28;20485;-74
2024/03/23 00:53:16;;;;;;;7.60;5.97;;;11.20;99.90;;;;;;4957866;28;20555;-73
2024/03/23 00:55:42;;;;;;;8.40;5.40;;;11.20;99.90;;;;;;4971693;28;20485;-74
2024/03/23 00:58:08;;;;;;;8.33;5.87;;;11.30;99.90;;;;;;4974815;28;20468;-74
2024/03/23 01:00:34;;;;;;;9.43;6.10;;;11.30;99.90;;;;;;4959071;28;20462;-74
2024/03/23 01:03:00;;;;;;;9.20;6.70;;;11.20;99.90;;;;;;4976123;28;20916;-74
2024/03/23 01:05:26;;;;;;;7.00;5.40;;;11.20;99.90;;;;;;4976858;28;20710;-74
2024/03/23 01:07:51;;;;;;;9.20;5.23;;;11.30;99.90;;;;;;4974027;28;20227;-74
2024/03/23 01:10:17;;;;;;;7.27;5.30;;;11.30;99.90;;;;;;4974687;28;20239;-74
2024/03/23 01:12:43;;;;;;;6.13;5.43;;;11.40;99.90;;;;;;4958115;28;20245;-77
2024/03/23 01:15:08;;;;;;;9.97;6.77;;;11.40;99.90;;;;;;4973122;28;20316;-75
2024/03/23 01:17:34;;;;;;;8.00;6.50;;;11.40;99.90;;;;;;4965009;28;20723;-74
2024/03/23 01:20:00;;;;;;;9.80;7.10;;;11.40;99.90;;;;;;4947030;28;20536;-74
2024/03/23 01:22:25;;;;;;;11.50;7.63;;;11.30;99.90;;;;;;4976490;28;20229;-73
2024/03/23 01:24:51;;;;;;;11.37;7.60;;;11.30;99.90;;;;;;4974813;28;20268;-72
2024/03/23 01:27:17;;;;;;;12.27;7.47;;;11.30;99.90;;;;;;4972358;28;20241;-73
2024/03/23 01:29:42;;;;;;;13.60;7.60;;;11.40;99.90;;;;;;4963199;28;20221;-74
2024/03/23 01:32:08;;;;;;;9.70;7.33;;;11.30;99.90;;;;;;4953584;28;20252;-73
2024/03/23 01:34:33;;;;;;;14.80;7.70;;;11.30;99.90;;;;;;4982571;28;20260;-74
2024/03/23 01:36:59;;;;;;;13.77;8.73;;;11.30;99.90;;;;;;4962701;28;20222;-71
2024/03/23 01:39:25;;;;;;;14.00;8.53;;;11.30;99.90;;;;;;4976204;28;20226;-73
2024/03/23 01:41:51;;;;;;;9.77;6.87;;;11.40;99.90;;;;;;4983922;28;20218;-73
2024/03/23 01:44:17;;;;;;;16.07;7.57;;;11.30;99.90;;;;;;4966854;28;20229;-74
2024/03/23 01:46:44;;;;;;;12.87;7.93;;;11.40;99.90;;;;;;4966709;28;20226;-75
2024/03/23 01:49:10;;;;;;;15.70;8.27;;;11.40;99.90;;;;;;4970406;28;20460;-74
2024/03/23 01:51:37;;;;;;;12.30;7.60;;;11.30;99.90;;;;;;4984519;28;20994;-73
2024/03/23 01:54:04;;;;;;;12.00;7.53;;;11.30;99.90;;;;;;4962360;28;20571;-74
2024/03/23 01:56:32;;;;;;;10.57;7.33;;;11.30;99.90;;;;;;4963818;28;20476;-74
2024/03/23 01:58:58;;;;;;;10.07;6.97;;;11.30;99.90;;;;;;4956804;28;21045;-74
2024/03/23 02:01:24;;;;;;;11.63;7.60;;;11.30;99.90;;;;;;4968944;28;20457;-72
2024/03/23 02:03:49;;;;;;;9.40;7.70;;;11.30;99.90;;;;;;4978594;28;20312;-75
2024/03/23 02:06:15;;;;;;;14.20;8.53;;;11.30;99.90;;;;;;4974944;28;20217;-73
2024/03/23 02:08:41;;;;;;;13.23;8.43;;;11.30;99.90;;;;;;4976385;28;20763;-74
2024/03/23 02:11:06;;;;;;;10.43;8.20;;;11.30;99.90;;;;;;4971993;28;20237;-73
2024/03/23 02:13:32;;;;;;;12.90;8.10;;;11.20;99.90;;;;;;4958811;28;20244;-73
2024/03/23 02:15:58;;;;;;;10.40;7.60;;;11.30;99.90;;;;;;4981497;28;20344;-73
2024/03/23 02:18:23;;;;;;;13.57;7.70;;;11.20;99.90;;;;;;4966375;28;20347;-73
2024/03/23 02:20:49;;;;;;;12.20;8.03;;;11.20;99.90;;;;;;4967975;28;20226;-72
2024/03/23 02:23:16;;;;;;;11.23;7.97;;;11.20;99.90;;;;;;4959714;28;20233;-74
2024/03/23 02:25:42;;;;;;;12.93;7.70;;;11.20;99.90;;;;;;4983443;28;20229;-73
2024/03/23 02:28:08;;;;;;;14.10;8.60;;;11.10;99.90;;;;;;4981864;28;20554;-73
2024/03/23 02:30:33;;;;;;;11.87;8.67;;;10.90;99.90;;;;;;4984015;28;20551;-73
2024/03/23 02:32:59;;;;;;;11.40;7.90;;;10.90;99.90;;;;;;4976629;28;20221;-73
2024/03/23 02:35:25;;;;;;;12.70;8.40;;;10.70;99.90;;;;;;4987898;28;20579;-73
2024/03/23 02:37:50;;;;;;;13.60;8.50;;;10.60;99.90;;;;;;4980464;28;20225;-74
2024/03/23 02:40:16;;;;;;;12.20;8.77;;;10.50;99.90;;;;;;4971339;28;20206;-73
2024/03/23 02:42:43;;;;;;;16.33;8.93;;;10.50;99.90;;;;;;4987491;28;20215;-74
2024/03/23 02:45:09;;;;;;;11.27;8.37;;;10.50;99.90;;;;;;4981486;28;20492;-74
2024/03/23 02:47:34;;;;;;;11.70;8.70;;;10.40;99.90;;;;;;4979024;28;20457;-74
2024/03/23 02:50:00;;;;;;;13.80;8.60;;;10.40;99.90;;;;;;4956943;28;21004;-73
2024/03/23 02:52:26;;;;;;;14.43;9.13;;;10.40;99.90;;;;;;4964068;28;20717;-74
2024/03/23 02:54:51;;;;;;;12.90;9.20;;;10.40;99.90;;;;;;4972852;28;20620;-73
2024/03/23 02:57:17;;;;;;;10.70;8.43;;;10.40;99.90;;;;;;4976874;28;20219;-74
2024/03/23 02:59:43;;;;;;;11.10;7.97;;;10.50;99.90;;;;;;4967802;28;20567;-73
2024/03/23 03:02:09;;;;;;;14.20;9.03;;;10.50;99.90;;;;;;4961469;28;20214;-72
2024/03/23 03:04:34;;;;;;;12.27;8.07;;;10.30;99.90;;;;;;4973285;28;20279;-72
2024/03/23 03:07:00;;;;;;;15.13;9.30;;;10.20;99.90;;;;;;4975593;28;20699;-71
2024/03/23 03:09:26;;;;;;;12.53;9.23;;;10.10;99.90;;;;;;4980001;28;20222;-72
2024/03/23 03:11:51;;;;;;;14.63;9.17;;;10.20;99.90;;;;;;4977134;28;20647;-73
2024/03/23 03:14:17;;;;;;;14.07;9.80;;;10.30;99.90;;;;;;4953676;28;20305;-75
2024/03/23 03:16:43;;;;;;;16.33;9.97;;;10.30;99.90;;;;;;4982679;28;20313;-73
2024/03/23 03:19:10;;;;;;;18.13;9.20;;;10.30;99.90;;;;;;4955845;28;20245;-73
2024/03/23 03:21:36;;;;;;;15.20;9.80;;;10.20;99.90;;;;;;4983386;28;20222;-73
2024/03/23 03:24:02;;;;;;;17.00;10.57;;;10.20;99.90;;;;;;4978424;28;20888;-74
2024/03/23 03:26:28;;;;;;;15.50;9.83;;;10.10;99.90;;;;;;4978703;28;20464;-74
2024/03/23 03:28:54;;;;;;;16.13;8.80;;;10.20;99.90;;;;;;4978594;28;20549;-73
2024/03/23 03:31:20;;;;;;;20.43;10.20;;;10.10;99.90;;;;;;4974074;28;20229;-73
2024/03/23 03:33:46;;;;;;;15.27;10.70;;;10.00;99.90;;;;;;4979402;28;20504;-73
2024/03/23 03:36:12;;;;;;;13.83;9.77;;;10.00;99.90;;;;;;4975650;28;20505;-74
2024/03/23 03:38:38;;;;;;;18.57;10.80;;;10.00;99.90;;;;;;4960053;28;20229;-73
2024/03/23 03:41:06;;;;;;;16.33;11.13;;;10.00;99.90;;;;;;4970489;28;20222;-75
2024/03/23 03:43:31;;;;;;;15.47;9.37;;;10.10;99.90;;;;;;4977976;28;20468;-73
2024/03/23 03:45:58;;;;;;;19.10;12.23;;;10.00;99.90;;;;;;4965407;28;20851;-72
2024/03/23 03:48:24;;;;;;;15.13;9.77;;;10.10;99.90;;;;;;4979171;28;20235;-73
2024/03/23 03:50:50;;;;;;;18.77;11.50;;;10.30;99.90;;;;;;4984284;28;20571;-73
2024/03/23 03:53:16;;;;;;;15.43;9.77;;;10.40;99.90;;;;;;4975067;28;20750;-73
2024/03/23 03:55:41;;;;;;;17.60;10.10;;;10.50;99.90;;;;;;4951323;28;20458;-74
2024/03/23 03:58:07;;;;;;;12.47;8.80;;;10.50;99.90;;;;;;4960040;28;20241;-73
2024/03/23 04:00:33;;;;;;;10.33;7.07;;;10.50;99.90;;;;;;4962693;28;20220;-73
2024/03/23 04:02:58;;;;;;;9.90;5.53;;;10.50;99.90;;;;;;4961850;28;20220;-73
2024/03/23 04:05:24;;;;;;;6.03;3.90;;;10.40;99.90;;;;;;4964014;28;20233;-73
2024/03/23 04:07:50;;;;;;;3.07;2.67;;;10.30;99.90;;;;;;4981661;28;20298;-74
2024/03/23 04:10:16;;;;;;;2.47;2.20;;;10.20;99.90;;;;;;4977537;28;20896;-73
2024/03/23 04:12:43;;;;;;;3.37;2.10;;;10.10;99.90;;;;;;4953114;28;20310;-73
2024/03/23 04:15:08;;;;;;;2.00;1.70;;;10.00;99.90;;;;;;4959957;28;20722;-73
2024/03/23 04:17:34;;;;;;;2.10;1.90;;;10.00;99.90;;;;;;4981488;28;20485;-73
2024/03/23 04:20:01;;;;;;;3.87;1.90;;;10.00;99.90;;;;;;4960502;28;20214;-72
2024/03/23 04:22:27;;;;;;;3.00;2.77;;;9.90;99.90;;;;;;4977138;28;20218;-74
2024/03/23 04:24:54;;;;;;;1.70;1.60;;;9.90;99.90;;;;;;4958822;28;20463;-73
2024/03/23 04:27:19;;;;;;;1.90;1.70;;;9.90;99.90;;;;;;4973524;28;20460;-74
2024/03/23 04:29:49;;;;;;;3.13;1.40;;;9.90;99.90;;;;;;4959780;28;20458;-74
2024/03/23 04:32:15;;;;;;;1.87;1.47;;;9.90;99.90;;;;;;4970447;28;20233;-74
2024/03/23 04:34:41;;;;;;;1.97;1.40;;;9.90;99.90;;;;;;4978885;28;20472;-74
2024/03/23 04:37:07;;;;;;;1.13;1.00;;;9.90;99.90;;;;;;4961188;28;20217;-74
2024/03/23 04:39:33;;;;;;;1.50;1.40;;;9.80;99.90;;;;;;4979197;28;20210;-73
2024/03/23 04:41:58;;;;;;;1.23;1.13;;;9.90;99.90;;;;;;4957855;28;20555;-74
2024/03/23 04:44:24;;;;;;;1.53;1.27;;;9.80;99.90;;;;;;4978848;28;20311;-72
2024/03/23 04:46:50;;;;;;;2.00;1.60;;;9.80;99.90;;;;;;4960636;28;20224;-74
2024/03/23 04:49:15;;;;;;;2.70;2.10;;;9.90;99.90;;;;;;4957413;28;20245;-73
2024/03/23 04:51:45;;;;;;;4.27;3.40;;;9.70;99.90;;;;;;4960425;28;20320;-74
2024/03/23 04:54:12;;;;;;;4.70;3.07;;;9.70;99.90;;;;;;4975342;28;20253;-73
2024/03/23 04:56:37;;;;;;;2.93;2.50;;;9.70;99.90;;;;;;4962235;28;20468;-73
2024/03/23 04:59:04;;;;;;;2.13;1.93;;;9.70;99.90;;;;;;4966624;28;20462;-74
2024/03/23 05:01:31;;;;;;;1.80;1.47;;;9.60;99.90;;;;;;4973457;28;20242;-73
2024/03/23 05:03:57;;;;;;;2.80;2.27;;;9.50;99.90;;;;;;4976475;28;20489;-71
2024/03/23 05:06:23;;;;;;;2.83;1.60;;;9.50;99.90;;;;;;4984843;28;20473;-74
2024/03/23 05:08:49;;;;;;;2.40;1.47;;;9.40;99.90;;;;;;4981499;28;20465;-74
2024/03/23 05:11:15;;;;;;;2.77;1.67;;;9.50;99.90;;;;;;4965930;28;20476;-74
2024/03/23 05:13:41;;;;;;;1.93;1.67;;;9.40;99.90;;;;;;4971200;28;20280;-73
2024/03/23 05:16:08;;;;;;;1.53;1.20;;;9.50;99.90;;;;;;4968287;28;20459;-73
2024/03/23 05:18:34;;;;;;;1.70;1.47;;;9.40;99.90;;;;;;4977071;28;20474;-73
2024/03/23 05:21:00;;;;;;;1.80;1.33;;;9.40;99.90;;;;;;4982975;28;20516;-73
2024/03/23 05:23:26;;;;;;;1.13;1.00;;;9.40;99.90;;;;;;4974258;28;20890;-73
2024/03/23 05:25:53;;;;;;;1.40;0.90;;;9.40;99.90;;;;;;4983160;28;20676;-73
2024/03/23 05:28:19;;;;;;;1.97;1.30;;;9.30;99.90;;;;;;4968199;28;20471;-73
2024/03/23 05:30:50;;;;;;;1.73;1.37;;;9.40;99.90;;;;;;4983581;28;20827;-74
2024/03/23 05:33:17;;;;;;;1.17;1.07;;;9.40;99.90;;;;;;4975249;28;20473;-73
2024/03/23 05:35:43;;;;;;;0.90;0.90;;;9.30;99.90;;;;;;4976032;28;20461;-73
2024/03/23 05:38:08;;;;;;;1.83;1.30;;;9.20;99.90;;;;;;4977231;28;20826;-73
2024/03/23 05:40:37;;;;;;;0.87;0.57;;;9.20;99.90;;;;;;4989232;28;20233;-74
2024/03/23 05:43:03;;;;;;;0.77;0.70;;;9.10;99.90;;;;;;4975042;28;20589;-73
2024/03/23 05:45:29;;;;;;;0.70;0.70;;;9.10;99.90;;;;;;4983006;28;20966;-73
2024/03/23 05:47:56;;;;;;;2.60;0.97;;;9.10;99.90;;;;;;4966661;28;20457;-72
2024/03/23 05:50:22;;;;;;;1.33;0.60;;;9.00;99.90;;;;;;4963794;28;20486;-74
2024/03/23 05:52:49;;;;;;;0.70;0.70;;;8.90;99.90;;;;;;4965139;28;20988;-73
2024/03/23 05:55:15;;;;;;;0.60;0.50;;;8.80;99.90;;;;;;4971514;28;20885;-74
2024/03/23 05:57:40;;;;;;;4.30;1.17;;;8.80;99.90;;;;;;4965594;28;20457;-72
2024/03/23 06:00:15;;;;;;;1.37;0.60;;;9.00;99.90;;;;;;4976956;28;20229;-73
2024/03/23 06:02:44;;;;;;;2.63;1.60;;;8.80;99.90;;;;;;4966608;28;20241;-72
2024/03/23 06:05:13;;;;;;;1.53;1.30;;;8.90;99.90;;;;;;4964777;28;20474;-73
2024/03/23 06:07:38;;;;;;;2.33;0.80;;;8.90;99.90;;;;;;4984635;28;20464;-73
2024/03/23 06:10:05;;;;;;;0.63;0.60;;;8.80;99.90;;;;;;4983241;28;20449;-73
2024/03/23 06:12:31;;;;;;;0.60;0.60;;;8.90;99.90;;;;;;4976361;28;20222;-74
2024/03/23 06:14:57;;;;;;;0.73;0.60;;;8.90;99.90;;;;;;4962376;28;20469;-73
2024/03/23 06:17:23;;;;;;;0.80;0.80;;;8.80;99.90;;;;;;4973433;28;20499;-72
2024/03/23 06:19:49;;;;;;;0.60;0.50;;;8.80;99.90;;;;;;4976010;28;20219;-74
2024/03/23 06:22:15;;;;;;;0.60;0.60;;;8.70;99.90;;;;;;4978249;28;20308;-73
2024/03/23 06:24:41;;;;;;;0.60;0.60;;;8.60;99.90;;;;;;4981521;28;20878;-73
2024/03/23 06:27:07;;;;;;;0.60;0.60;;;8.40;99.90;;;;;;4963936;28;20296;-73
2024/03/23 06:29:32;;;;;;;0.60;0.60;;;8.50;99.90;;;;;;4978969;28;20296;-73
2024/03/23 06:31:58;;;;;;;2.27;1.50;;;8.40;99.90;;;;;;4982665;28;20225;-72
2024/03/23 06:34:24;;;;;;;1.43;1.33;;;8.30;99.90;;;;;;4974660;28;20236;-72
2024/03/23 06:36:50;;;;;;;1.47;1.37;;;8.40;99.90;;;;;;4971418;28;20276;-73
2024/03/23 06:39:16;;;;;;;2.30;2.10;;;8.50;99.90;;;;;;4985957;28;20268;-74
2024/03/23 06:41:54;;;;;;;1.83;1.73;;;8.60;99.90;;;;;;4970422;28;20228;-73
2024/03/23 06:44:20;;;;;;;2.10;1.87;;;8.50;99.90;;;;;;4982852;28;20459;-73
2024/03/23 06:46:47;;;;;;;2.20;2.03;;;8.60;99.90;;;;;;4985507;28;20458;-73
2024/03/23 06:49:13;;;;;;;4.10;3.13;;;8.60;99.90;;;;;;4971691;28;20519;-73
2024/03/23 06:51:39;;;;;;;2.70;2.33;;;8.60;99.90;;;;;;4985465;28;20552;-73
2024/03/23 06:54:05;;;;;;;8.03;2.13;;;8.50;99.90;;;;;;4985095;28;20699;-73
2024/03/23 06:56:31;;;;;;;4.23;2.67;;;8.60;99.90;;;;;;4966451;28;20552;-73
2024/03/23 06:58:57;;;;;;;2.43;2.23;;;8.50;99.90;;;;;;4988598;28;20718;-73
2024/03/23 07:01:22;;;;;;;4.10;2.73;;;8.50;99.90;;;;;;4985432;28;20308;-73
2024/03/23 07:03:48;;;;;;;2.90;2.37;;;8.50;99.90;;;;;;4971667;28;20584;-73
2024/03/23 07:06:14;;;;;;;4.30;2.83;;;8.50;99.90;;;;;;4986775;28;20317;-73
2024/03/23 07:08:39;;;;;;;3.10;2.80;;;8.50;99.90;;;;;;4983484;28;20260;-73
2024/03/23 07:11:05;;;;;;;3.80;3.10;;;8.50;99.90;;;;;;4977986;28;20225;-72
2024/03/23 07:13:31;;;;;;;2.97;2.70;;;8.50;99.90;;;;;;4969473;28;20301;-73
2024/03/23 07:15:58;;;;;;;6.80;3.33;;;8.50;99.90;;;;;;4980597;28;20219;-73
2024/03/23 07:18:23;;;;;;;3.43;3.13;;;8.50;99.90;;;;;;4972257;28;20275;-73
2024/03/23 07:20:56;;;;;;;3.27;2.97;;;8.50;99.90;;;;;;4985832;28;20461;-74
2024/03/23 07:23:23;;;;;;;3.67;2.97;;;8.50;99.90;;;;;;4987107;28;20865;-73
2024/03/23 07:25:58;;;;;;;5.07;3.20;;;8.30;99.90;;;;;;4977196;28;20471;-72
2024/03/23 07:28:24;;;;;;;4.07;3.53;;;8.40;99.90;;;;;;4981804;28;20483;-74
2024/03/23 07:31:10;;;;;;;5.23;3.10;;;8.50;99.90;;;;;;4986312;28;20837;-73
2024/03/23 07:33:38;;;;;;;4.67;3.63;;;8.50;99.90;;;;;;4971237;28;20236;-74
2024/03/23 07:36:05;;;;;;;4.60;3.00;;;8.60;99.90;;;;;;4988108;28;20465;-74
2024/03/23 07:38:31;;;;;;;4.83;2.60;;;8.60;99.90;;;;;;4989034;28;20539;-73
2024/03/23 07:41:23;;;;;;;2.90;2.70;;;8.50;99.90;;;;;;4979179;28;20529;-73
2024/03/23 07:43:50;;;;;;;5.70;3.40;;;8.50;99.90;;;;;;4969636;28;20222;-73
2024/03/23 07:46:16;;;;;;;5.43;3.77;;;8.50;99.90;;;;;;4986829;28;20575;-73
2024/03/23 07:48:42;;;;;;;7.13;3.67;;;8.50;99.90;;;;;;4986611;28;20452;-74
2024/03/23 07:51:09;;;;;;;3.90;3.27;;;8.50;99.90;;;;;;4971375;28;20468;-73
2024/03/23 07:53:37;;;;;;;6.23;4.60;;;8.50;99.90;;;;;;4970950;28;20465;-74
2024/03/23 07:56:06;;;;;;;4.93;3.70;;;8.60;99.90;;;;;;4986846;28;20556;-73
2024/03/23 07:58:32;;;;;;;4.47;3.40;;;8.70;99.90;;;;;;4981847;28;20451;-74
2024/03/23 08:01:05;;;;;;;7.73;4.67;;;8.70;99.90;;;;;;4983255;28;20453;-74
2024/03/23 08:03:31;;;;;;;7.43;4.60;;;8.80;99.90;;;;;;4972804;28;20492;-74
2024/03/23 08:05:57;;;;;;;6.20;4.97;;;8.60;99.90;;;;;;4967521;28;20980;-74
2024/03/23 08:08:22;;;;;;;10.27;5.17;;;8.70;99.90;;;;;;4968402;28;20222;-74
2024/03/23 08:10:53;;;;;;;9.60;6.40;;;8.80;99.90;;;;;;4968215;28;20545;-74
2024/03/23 08:13:19;;;;;;;10.20;5.57;;;8.70;99.90;;;;;;4966277;28;20411;-73
2024/03/23 08:15:45;;;;;;;6.47;4.57;;;8.90;99.90;;;;;;4979817;28;21081;-73
2024/03/23 08:18:15;;;;;;;10.53;4.90;;;8.90;99.90;;;;;;4982756;28;20458;-73
2024/03/23 08:20:41;;;;;;;9.83;3.83;;;8.80;99.90;;;;;;4979834;28;20710;-74
2024/03/23 08:23:07;;;;;;;7.97;4.17;;;9.00;99.90;;;;;;4971721;28;20995;-75
2024/03/23 08:25:34;;;;;;;6.67;2.80;;;9.00;99.90;;;;;;4972654;28;20495;-74
2024/03/23 08:27:59;;;;;;;5.17;3.40;;;8.90;99.90;;;;;;4977405;28;20515;-73
2024/03/23 08:30:25;;;;;;;4.60;3.03;;;9.00;99.90;;;;;;4983422;28;20659;-74
2024/03/23 08:32:52;;;;;;;5.37;3.60;;;9.10;99.90;;;;;;4985938;28;20218;-74
2024/03/23 08:35:18;;;;;;;4.10;2.83;;;9.10;99.90;;;;;;4972214;28;20468;-73
2024/03/23 08:37:43;;;;;;;7.90;3.60;;;9.20;99.90;;;;;;4966526;28;20592;-73
2024/03/23 08:40:09;;;;;;;4.10;3.07;;;9.30;99.90;;;;;;4983579;28;20506;-71
2024/03/23 08:42:35;;;;;;;5.83;3.17;;;9.30;99.90;;;;;;4968889;28;20297;-74
2024/03/23 08:45:01;;;;;;;3.90;3.00;;;9.40;99.90;;;;;;4971046;28;20485;-73
2024/03/23 08:47:27;;;;;;;4.17;2.73;;;9.40;99.90;;;;;;4971150;28;20480;-73
2024/03/23 08:49:52;;;;;;;3.97;2.63;;;9.50;99.90;;;;;;4982656;28;20575;-75
2024/03/23 08:52:18;;;;;;;7.63;3.13;;;9.50;99.90;;;;;;4983567;28;20240;-73
2024/03/23 08:54:44;;;;;;;5.83;2.90;;;9.40;99.90;;;;;;4986745;28;20249;-74
2024/03/23 08:57:09;;;;;;;6.63;2.50;;;9.50;99.90;;;;;;4982947;28;20222;-75
2024/03/23 08:59:35;;;;;;;3.47;2.67;;;9.60;99.90;;;;;;4983098;28;20226;-75
2024/03/23 09:02:01;;;;;;;3.67;2.10;;;9.70;99.90;;;;;;4967763;28;20224;-74
2024/03/23 09:04:26;;;;;;;2.60;2.30;;;9.80;99.90;;;;;;4983494;28;20225;-74
2024/03/23 09:06:52;;;;;;;4.63;2.47;;;9.90;99.90;;;;;;4965437;28;20308;-73
2024/03/23 09:09:19;;;;;;;3.10;2.47;;;10.00;99.90;;;;;;4969041;28;20247;-74
2024/03/23 09:11:45;;;;;;;3.73;1.90;;;10.20;99.90;;;;;;4982037;28;20279;-74
2024/03/23 09:14:11;;;;;;;9.00;2.30;;;10.10;99.90;;;;;;4978715;28;20461;-74
2024/03/23 09:16:36;;;;;;;2.73;1.90;;;10.30;99.90;;;;;;4969500;28;20249;-74
2024/03/23 09:19:02;;;;;;;3.47;1.93;;;10.40;99.90;;;;;;4985189;28;20719;-74
2024/03/23 09:21:28;;;;;;;7.43;2.63;;;10.50;99.90;;;;;;4965272;28;20229;-73
2024/03/23 09:23:54;;;;;;;6.43;2.73;;;10.60;99.90;;;;;;4963493;28;20473;-74
2024/03/23 09:26:20;;;;;;;4.67;2.23;;;10.60;99.90;;;;;;4974132;28;20222;-74
2024/03/23 09:28:48;;;;;;;8.10;2.17;;;10.70;99.90;;;;;;4979584;28;20223;-74
2024/03/23 09:31:15;;;;;;;3.93;2.10;;;10.80;99.90;;;;;;4982748;28;20222;-75
2024/03/23 09:33:41;;;;;;;5.57;2.37;;;10.80;99.90;;;;;;4977400;28;20468;-74
2024/03/23 09:36:07;;;;;;;3.17;2.70;;;10.90;99.90;;;;;;4966289;28;20457;-73
2024/03/23 09:38:33;;;;;;;2.50;1.70;;;10.90;99.90;;;;;;4964882;28;20468;-74
2024/03/23 09:40:59;;;;;;;4.00;2.10;;;11.00;99.90;;;;;;4969275;28;20541;-73
2024/03/23 09:43:25;;;;;;;4.40;2.40;;;11.00;99.90;;;;;;4964696;28;20556;-75
2024/03/23 09:45:52;;;;;;;4.80;1.60;;;10.90;99.90;;;;;;4982137;28;20230;-74
2024/03/23 09:48:18;;;;;;;5.33;2.23;;;11.00;99.90;;;;;;4969331;28;20462;-75
2024/03/23 09:50:45;;;;;;;2.00;1.80;;;11.10;99.90;;;;;;4986152;28;20472;-74
2024/03/23 09:53:12;;;;;;;6.00;2.10;;;11.00;99.90;;;;;;4980431;28;20883;-73
2024/03/23 09:55:40;;;;;;;2.63;1.83;;;11.00;99.90;;;;;;4964475;28;20541;-73
2024/03/23 09:58:05;;;;;;;5.03;2.03;;;11.00;99.90;;;;;;4980782;28;20449;-73
2024/03/23 10:00:37;;;;;;;2.27;2.07;;;11.00;99.90;;;;;;4987953;28;21000;-74
2024/03/23 10:03:06;;;;;;;5.07;2.20;;;11.00;99.90;;;;;;4967231;28;20221;-73
2024/03/23 10:05:33;;;;;;;1.73;1.40;;;11.00;99.90;;;;;;4989192;28;20472;-74
2024/03/23 10:08:00;;;;;;;3.10;1.83;;;10.90;99.90;;;;;;4970534;28;20547;-75
2024/03/23 10:10:26;;;;;;;1.90;1.70;;;10.80;99.90;;;;;;4980355;28;20457;-73
2024/03/23 10:12:52;;;;;;;2.13;1.93;;;10.80;99.90;;;;;;4980895;28;20471;-75
2024/03/23 10:15:21;;;;;;;5.63;2.43;;;10.70;99.90;;;;;;4981166;28;20235;-75
2024/03/23 10:17:47;;;;;;;3.10;1.70;;;10.70;99.90;;;;;;4985321;28;20608;-75
2024/03/23 10:20:19;;;;;;;5.57;1.83;;;10.30;99.90;;;;;;4980555;28;20476;-74
2024/03/23 10:22:46;;;;;;;2.57;1.57;;;9.90;99.90;;;;;;4982277;28;20221;-75
2024/03/23 10:25:13;;;;;;;6.30;1.70;;;9.60;99.90;;;;;;4986082;28;20962;-74
2024/03/23 10:27:39;;;;;;;2.27;1.77;;;9.70;99.90;;;;;;4969197;28;20453;-73
2024/03/23 10:30:09;;;;;;;3.93;1.50;;;9.60;99.90;;;;;;4988831;28;20480;-74
2024/03/23 10:32:35;;;;;;;1.33;1.23;;;9.40;99.90;;;;;;4988149;28;20237;-74
2024/03/23 10:35:22;;;;;;;4.33;1.60;;;9.30;99.90;;;;;;4968701;28;20974;-72
2024/03/23 10:37:49;;;;;;;2.57;1.30;;;9.10;99.90;;;;;;4985290;28;20492;-74
2024/03/23 10:40:15;;;;;;;6.03;1.83;;;9.20;99.90;;;;;;4986725;28;21054;-74
2024/03/23 10:42:41;;;;;;;3.27;1.77;;;9.10;99.90;;;;;;4985212;28;20457;-74
2024/03/23 10:45:08;;;;;;;1.73;1.63;;;8.50;99.90;;;;;;4980834;28;20488;-73
2024/03/23 10:47:38;;;;;;;2.50;1.37;;;8.00;99.90;;;;;;4977521;28;20229;-74
2024/03/23 10:50:07;;;;;;;4.60;1.90;;;7.70;99.90;;;;;;4970753;28;20485;-75
2024/03/23 10:52:33;;;;;;;2.17;1.27;;;7.60;99.90;;;;;;4965785;28;20469;-74
2024/03/23 10:55:04;;;;;;;1.83;0.87;;;7.80;99.90;;;;;;4980723;28;20463;-76
2024/03/23 10:57:34;;;;;;;1.63;0.80;;;7.80;99.90;;;;;;4983057;28;20492;-74
2024/03/23 11:00:01;;;;;;;1.37;1.00;;;7.70;99.90;;;;;;4986637;28;20468;-74
2024/03/23 11:02:28;;;;;;;2.17;1.10;;;7.60;99.90;;;;;;4963599;28;20473;-74
2024/03/23 11:04:54;;;;;;;3.43;1.47;;;7.60;99.90;;;;;;4972355;28;20469;-73
2024/03/23 11:07:29;;;;;;;1.50;1.10;;;7.40;99.90;;;;;;4985595;28;20989;-74
2024/03/23 11:09:55;;;;;;;1.80;1.33;;;7.40;99.90;;;;;;4988789;28;20214;-74
2024/03/23 11:12:23;;;;;;;3.40;1.37;;;7.60;99.90;;;;;;4981974;28;21082;-74
2024/03/23 11:15:01;;;;;;;1.03;0.90;;;7.80;99.90;;;;;;4984283;28;20241;-73
2024/03/23 11:17:27;;;;;;;3.57;1.60;;;8.10;99.90;;;;;;4982705;28;21015;-73
2024/03/23 11:19:56;;;;;;;3.00;1.40;;;8.30;99.90;;;;;;4967404;28;20457;-73
2024/03/23 11:22:41;;;;;;;6.63;2.13;;;8.60;99.90;;;;;;4985283;28;20471;-74
2024/03/23 11:25:23;;;;;;;6.07;2.13;;;8.90;99.90;;;;;;4984679;28;21003;-73
2024/03/23 11:27:53;;;;;;;6.37;1.93;;;9.10;99.90;;;;;;4987945;28;20455;-75
2024/03/23 11:30:29;;;;;;;3.17;2.77;;;9.20;99.90;;;;;;4980565;28;22399;-73
2024/03/23 11:32:56;;;;;;;6.83;3.17;;;9.40;99.90;;;;;;4983531;28;20568;-74
2024/03/23 11:35:33;;;;;;;3.27;2.60;;;9.40;99.90;;;;;;4966848;28;20469;-74
2024/03/23 11:38:15;;;;;;;3.60;2.10;;;9.70;99.90;;;;;;4978694;28;20507;-73
2024/03/23 11:40:50;;;;;;;2.03;1.80;;;10.00;99.90;;;;;;4980700;28;20548;-73
2024/03/23 11:43:17;;;;;;;5.13;2.67;;;10.20;99.90;;;;;;4965994;28;20483;-74
2024/03/23 11:45:51;;;;;;;5.40;2.10;;;10.40;99.90;;;;;;4967406;28;20453;-74
2024/03/23 11:48:19;;;;;;;3.47;1.97;;;10.60;99.90;;;;;;4985427;28;20461;-74
2024/03/23 11:50:58;;;;;;;9.50;2.70;;;10.80;99.90;;;;;;4967379;28;20983;-73
2024/03/23 11:53:27;;;;;;;3.77;1.73;;;11.00;99.90;;;;;;4959700;28;20449;-74
2024/03/23 11:55:56;;;;;;;4.33;2.10;;;11.10;99.90;;;;;;4982397;28;20457;-75
2024/03/23 11:58:23;;;;;;;2.57;1.90;;;11.20;99.90;;;;;;4978585;28;20441;-74
2024/03/23 12:00:57;;;;;;;7.73;2.30;;;11.50;99.90;;;;;;4982612;28;20457;-74
2024/03/23 12:03:28;;;;;;;4.10;2.30;;;11.60;99.90;;;;;;4975338;28;20474;-75
2024/03/23 12:05:55;;;;;;;4.50;2.37;;;11.80;99.90;;;;;;4986290;28;20552;-74
2024/03/23 12:08:25;;;;;;;3.17;2.00;;;11.80;99.90;;;;;;4982847;28;20454;-74
2024/03/23 12:11:06;;;;;;;3.77;2.43;;;11.80;99.90;;;;;;4985358;28;20473;-74
2024/03/23 12:13:32;;;;;;;5.37;2.57;;;11.80;99.90;;;;;;4967945;28;20472;-74
2024/03/23 12:16:09;;;;;;;7.93;2.30;;;11.70;99.90;;;;;;4986423;28;20481;-75
2024/03/23 12:18:34;;;;;;;6.23;2.20;;;11.70;99.90;;;;;;4981759;28;20461;-75
2024/03/23 12:21:00;;;;;;;4.87;1.97;;;11.60;99.90;;;;;;4981652;28;20603;-74
2024/03/23 12:23:26;;;;;;;10.70;2.47;;;11.60;99.90;;;;;;4967730;28;20277;-74
2024/03/23 12:25:51;;;;;;;3.30;2.13;;;11.50;99.90;;;;;;4975952;28;20767;-74
2024/03/23 12:28:17;;;;;;;3.23;1.83;;;11.40;99.90;;;;;;4965771;28;20217;-74
2024/03/23 12:30:43;;;;;;;7.27;2.27;;;11.40;99.90;;;;;;4983553;28;20679;-75
2024/03/23 12:33:08;;;;;;;1.97;1.57;;;11.40;99.90;;;;;;4966351;28;20222;-75
2024/03/23 12:35:34;;;;;;;3.53;1.60;;;11.20;99.90;;;;;;4980189;28;20241;-75
2024/03/23 12:38:00;;;;;;;2.20;1.27;;;11.20;99.90;;;;;;4965750;28;20245;-75
2024/03/23 12:40:27;;;;;;;2.23;1.47;;;11.00;99.90;;;;;;4969377;28;20218;-75
2024/03/23 12:42:53;;;;;;;1.57;1.03;;;10.60;99.90;;;;;;4984585;28;20213;-74
2024/03/23 12:45:19;;;;;;;4.07;1.00;;;10.50;99.90;;;;;;4981432;28;20572;-75
2024/03/23 12:47:44;;;;;;;2.30;0.93;;;10.20;99.90;;;;;;4969588;28;20516;-74